sensor_id;sensor_type;location;lat;lon;timestamp;P1;durP1;ratioP1;P2;durP2;ratioP2
13269;SDS011;6703;51.994;7.570;2022-09-30T00:00:38;20.10;;;10.77;;
13269;SDS011;6703;51.994;7.570;2022-09-30T00:03:05;21.08;;;10.48;;
13269;SDS011;6703;51.994;7.570;2022-09-30T00:05:34;17.67;;;9.90;;
13269;SDS011;6703;51.994;7.570;2022-09-30T00:08:02;21.17;;;9.20;;
13269;SDS011;6703;51.994;7.570;2022-09-30T00:10:30;20.55;;;10.02;;
13269;SDS011;6703;51.994;7.570;2022-09-30T00:12:58;19.90;;;10.30;;
13269;SDS011;6703;51.994;7.570;2022-09-30T00:15:27;22.77;;;10.52;;
13269;SDS011;6703;51.994;7.570;2022-09-30T00:17:54;23.02;;;11.60;;
13269;SDS011;6703;51.994;7.570;2022-09-30T00:20:22;27.27;;;11.02;;
13269;SDS011;6703;51.994;7.570;2022-09-30T00:22:51;26.35;;;12.43;;
13269;SDS011;6703;51.994;7.570;2022-09-30T00:25:19;24.65;;;12.02;;
13269;SDS011;6703;51.994;7.570;2022-09-30T00:27:47;31.02;;;12.30;;
13269;SDS011;6703;51.994;7.570;2022-09-30T00:30:15;25.25;;;11.55;;
13269;SDS011;6703;51.994;7.570;2022-09-30T00:32:42;26.47;;;11.20;;
13269;SDS011;6703;51.994;7.570;2022-09-30T00:35:10;18.15;;;10.35;;
13269;SDS011;6703;51.994;7.570;2022-09-30T00:37:38;20.15;;;10.77;;
13269;SDS011;6703;51.994;7.570;2022-09-30T00:40:07;27.15;;;11.10;;
13269;SDS011;6703;51.994;7.570;2022-09-30T00:42:38;25.45;;;11.02;;
13269;SDS011;6703;51.994;7.570;2022-09-30T00:45:08;26.13;;;11.30;;
13269;SDS011;6703;51.994;7.570;2022-09-30T00:47:37;24.83;;;12.15;;
13269;SDS011;6703;51.994;7.570;2022-09-30T00:50:23;23.25;;;11.10;;
13269;SDS011;6703;51.994;7.570;2022-09-30T00:52:53;27.00;;;12.40;;
13269;SDS011;6703;51.994;7.570;2022-09-30T00:55:30;25.90;;;11.27;;
13269;SDS011;6703;51.994;7.570;2022-09-30T00:58:01;24.63;;;11.98;;
13269;SDS011;6703;51.994;7.570;2022-09-30T01:00:30;23.20;;;11.98;;
13269;SDS011;6703;51.994;7.570;2022-09-30T01:02:58;21.98;;;11.50;;
13269;SDS011;6703;51.994;7.570;2022-09-30T01:05:25;24.92;;;12.02;;
13269;SDS011;6703;51.994;7.570;2022-09-30T01:07:54;24.20;;;11.43;;
13269;SDS011;6703;51.994;7.570;2022-09-30T01:10:22;26.90;;;11.48;;
13269;SDS011;6703;51.994;7.570;2022-09-30T01:12:51;21.02;;;11.38;;
13269;SDS011;6703;51.994;7.570;2022-09-30T01:15:20;26.13;;;11.70;;
13269;SDS011;6703;51.994;7.570;2022-09-30T01:17:51;22.38;;;11.13;;
13269;SDS011;6703;51.994;7.570;2022-09-30T01:20:31;23.20;;;11.32;;
13269;SDS011;6703;51.994;7.570;2022-09-30T01:23:38;29.77;;;11.68;;
13269;SDS011;6703;51.994;7.570;2022-09-30T01:29:50;24.08;;;10.70;;
13269;SDS011;6703;51.994;7.570;2022-09-30T01:32:32;19.73;;;10.70;;
13269;SDS011;6703;51.994;7.570;2022-09-30T01:35:10;22.58;;;10.32;;
13269;SDS011;6703;51.994;7.570;2022-09-30T01:37:43;28.45;;;11.43;;
13269;SDS011;6703;51.994;7.570;2022-09-30T01:40:19;22.48;;;10.88;;
13269;SDS011;6703;51.994;7.570;2022-09-30T01:42:52;23.55;;;10.88;;
13269;SDS011;6703;51.994;7.570;2022-09-30T01:45:25;23.60;;;11.45;;
13269;SDS011;6703;51.994;7.570;2022-09-30T01:48:01;28.10;;;12.20;;
13269;SDS011;6703;51.994;7.570;2022-09-30T01:50:32;22.77;;;11.48;;
13269;SDS011;6703;51.994;7.570;2022-09-30T01:53:07;25.70;;;11.82;;
13269;SDS011;6703;51.994;7.570;2022-09-30T01:55:38;29.88;;;13.52;;
13269;SDS011;6703;51.994;7.570;2022-09-30T01:58:10;31.45;;;12.73;;
13269;SDS011;6703;51.994;7.570;2022-09-30T02:00:41;24.63;;;12.85;;
13269;SDS011;6703;51.994;7.570;2022-09-30T02:03:13;34.58;;;14.20;;
13269;SDS011;6703;51.994;7.570;2022-09-30T02:05:43;32.87;;;13.87;;
13269;SDS011;6703;51.994;7.570;2022-09-30T02:08:16;35.53;;;14.73;;
13269;SDS011;6703;51.994;7.570;2022-09-30T02:10:48;31.98;;;13.77;;
13269;SDS011;6703;51.994;7.570;2022-09-30T02:13:24;34.67;;;14.82;;
13269;SDS011;6703;51.994;7.570;2022-09-30T02:15:54;30.45;;;14.23;;
13269;SDS011;6703;51.994;7.570;2022-09-30T02:18:26;34.23;;;14.23;;
13269;SDS011;6703;51.994;7.570;2022-09-30T02:20:56;33.92;;;13.88;;
13269;SDS011;6703;51.994;7.570;2022-09-30T02:23:26;34.63;;;14.30;;
13269;SDS011;6703;51.994;7.570;2022-09-30T02:25:57;33.88;;;13.40;;
13269;SDS011;6703;51.994;7.570;2022-09-30T02:28:32;32.50;;;13.50;;
13269;SDS011;6703;51.994;7.570;2022-09-30T02:31:04;33.65;;;14.10;;
13269;SDS011;6703;51.994;7.570;2022-09-30T02:33:38;33.90;;;13.75;;
13269;SDS011;6703;51.994;7.570;2022-09-30T02:36:08;29.73;;;13.35;;
13269;SDS011;6703;51.994;7.570;2022-09-30T02:38:38;33.65;;;14.40;;
13269;SDS011;6703;51.994;7.570;2022-09-30T02:41:07;33.15;;;15.15;;
13269;SDS011;6703;51.994;7.570;2022-09-30T02:43:37;34.88;;;14.63;;
13269;SDS011;6703;51.994;7.570;2022-09-30T02:46:07;39.55;;;16.48;;
13269;SDS011;6703;51.994;7.570;2022-09-30T02:48:41;33.85;;;14.90;;
13269;SDS011;6703;51.994;7.570;2022-09-30T02:51:10;32.53;;;13.68;;
13269;SDS011;6703;51.994;7.570;2022-09-30T02:53:42;34.40;;;13.57;;
13269;SDS011;6703;51.994;7.570;2022-09-30T02:56:14;31.50;;;13.93;;
13269;SDS011;6703;51.994;7.570;2022-09-30T02:58:48;35.77;;;15.10;;
13269;SDS011;6703;51.994;7.570;2022-09-30T03:01:17;31.10;;;14.00;;
13269;SDS011;6703;51.994;7.570;2022-09-30T03:03:47;33.42;;;14.05;;
13269;SDS011;6703;51.994;7.570;2022-09-30T03:06:16;39.10;;;15.20;;
13269;SDS011;6703;51.994;7.570;2022-09-30T03:08:44;36.63;;;14.88;;
13269;SDS011;6703;51.994;7.570;2022-09-30T03:11:13;41.25;;;15.38;;
13269;SDS011;6703;51.994;7.570;2022-09-30T03:13:54;31.27;;;14.05;;
13269;SDS011;6703;51.994;7.570;2022-09-30T03:16:35;38.20;;;15.30;;
13269;SDS011;6703;51.994;7.570;2022-09-30T03:19:18;37.05;;;15.40;;
13269;SDS011;6703;51.994;7.570;2022-09-30T03:21:57;38.05;;;15.85;;
13269;SDS011;6703;51.994;7.570;2022-09-30T03:24:40;39.97;;;15.70;;
13269;SDS011;6703;51.994;7.570;2022-09-30T03:27:21;40.15;;;16.02;;
13269;SDS011;6703;51.994;7.570;2022-09-30T03:29:57;43.65;;;16.23;;
13269;SDS011;6703;51.994;7.570;2022-09-30T03:32:39;46.60;;;16.15;;
13269;SDS011;6703;51.994;7.570;2022-09-30T03:35:17;37.72;;;15.75;;
13269;SDS011;6703;51.994;7.570;2022-09-30T03:37:53;36.38;;;15.05;;
13269;SDS011;6703;51.994;7.570;2022-09-30T03:40:26;41.30;;;16.08;;
13269;SDS011;6703;51.994;7.570;2022-09-30T03:42:59;39.60;;;15.35;;
13269;SDS011;6703;51.994;7.570;2022-09-30T03:45:30;39.72;;;15.95;;
13269;SDS011;6703;51.994;7.570;2022-09-30T03:48:02;37.60;;;15.15;;
13269;SDS011;6703;51.994;7.570;2022-09-30T03:50:32;44.05;;;16.33;;
13269;SDS011;6703;51.994;7.570;2022-09-30T03:53:02;42.55;;;16.85;;
13269;SDS011;6703;51.994;7.570;2022-09-30T03:55:31;43.65;;;16.20;;
13269;SDS011;6703;51.994;7.570;2022-09-30T03:57:59;46.05;;;17.30;;
13269;SDS011;6703;51.994;7.570;2022-09-30T04:00:27;46.75;;;17.13;;
13269;SDS011;6703;51.994;7.570;2022-09-30T04:02:58;45.60;;;16.67;;
13269;SDS011;6703;51.994;7.570;2022-09-30T04:05:26;43.95;;;16.42;;
13269;SDS011;6703;51.994;7.570;2022-09-30T04:07:55;44.78;;;17.02;;
13269;SDS011;6703;51.994;7.570;2022-09-30T04:10:22;53.17;;;16.45;;
13269;SDS011;6703;51.994;7.570;2022-09-30T04:12:51;42.35;;;16.48;;
13269;SDS011;6703;51.994;7.570;2022-09-30T04:15:19;57.58;;;19.05;;
13269;SDS011;6703;51.994;7.570;2022-09-30T04:17:48;57.70;;;17.45;;
13269;SDS011;6703;51.994;7.570;2022-09-30T04:20:16;45.42;;;17.50;;
13269;SDS011;6703;51.994;7.570;2022-09-30T04:22:44;44.83;;;16.85;;
13269;SDS011;6703;51.994;7.570;2022-09-30T04:25:14;56.88;;;17.33;;
13269;SDS011;6703;51.994;7.570;2022-09-30T04:27:42;53.30;;;16.87;;
13269;SDS011;6703;51.994;7.570;2022-09-30T04:30:10;42.28;;;15.65;;
13269;SDS011;6703;51.994;7.570;2022-09-30T04:32:40;47.28;;;16.52;;
13269;SDS011;6703;51.994;7.570;2022-09-30T04:35:10;47.53;;;16.45;;
13269;SDS011;6703;51.994;7.570;2022-09-30T04:37:40;41.50;;;16.25;;
13269;SDS011;6703;51.994;7.570;2022-09-30T04:40:11;40.92;;;15.48;;
13269;SDS011;6703;51.994;7.570;2022-09-30T04:42:42;45.05;;;15.68;;
13269;SDS011;6703;51.994;7.570;2022-09-30T04:45:10;42.05;;;15.45;;
13269;SDS011;6703;51.994;7.570;2022-09-30T04:47:41;45.70;;;15.73;;
13269;SDS011;6703;51.994;7.570;2022-09-30T04:50:09;41.90;;;15.95;;
13269;SDS011;6703;51.994;7.570;2022-09-30T04:52:39;43.35;;;17.58;;
13269;SDS011;6703;51.994;7.570;2022-09-30T04:55:09;54.00;;;16.55;;
13269;SDS011;6703;51.994;7.570;2022-09-30T04:57:37;49.38;;;17.40;;
13269;SDS011;6703;51.994;7.570;2022-09-30T05:00:06;49.22;;;16.45;;
13269;SDS011;6703;51.994;7.570;2022-09-30T05:02:35;44.40;;;16.50;;
13269;SDS011;6703;51.994;7.570;2022-09-30T05:05:03;44.35;;;17.10;;
13269;SDS011;6703;51.994;7.570;2022-09-30T05:07:31;40.35;;;16.05;;
13269;SDS011;6703;51.994;7.570;2022-09-30T05:09:59;38.35;;;15.07;;
13269;SDS011;6703;51.994;7.570;2022-09-30T05:12:27;44.22;;;15.25;;
13269;SDS011;6703;51.994;7.570;2022-09-30T05:14:55;37.88;;;14.75;;
13269;SDS011;6703;51.994;7.570;2022-09-30T05:17:24;54.15;;;15.73;;
13269;SDS011;6703;51.994;7.570;2022-09-30T05:19:52;45.20;;;14.30;;
13269;SDS011;6703;51.994;7.570;2022-09-30T05:22:19;41.42;;;15.00;;
13269;SDS011;6703;51.994;7.570;2022-09-30T05:24:48;46.80;;;15.05;;
13269;SDS011;6703;51.994;7.570;2022-09-30T05:27:16;52.20;;;15.77;;
13269;SDS011;6703;51.994;7.570;2022-09-30T05:29:44;47.40;;;15.32;;
13269;SDS011;6703;51.994;7.570;2022-09-30T05:32:12;45.00;;;15.98;;
13269;SDS011;6703;51.994;7.570;2022-09-30T05:34:41;52.77;;;15.07;;
13269;SDS011;6703;51.994;7.570;2022-09-30T05:37:09;43.95;;;15.90;;
13269;SDS011;6703;51.994;7.570;2022-09-30T05:39:37;38.03;;;14.48;;
13269;SDS011;6703;51.994;7.570;2022-09-30T05:42:05;48.20;;;15.02;;
13269;SDS011;6703;51.994;7.570;2022-09-30T05:44:39;46.17;;;15.20;;
13269;SDS011;6703;51.994;7.570;2022-09-30T05:47:06;42.37;;;13.87;;
13269;SDS011;6703;51.994;7.570;2022-09-30T05:49:36;34.85;;;12.85;;
13269;SDS011;6703;51.994;7.570;2022-09-30T05:52:06;38.22;;;13.75;;
13269;SDS011;6703;51.994;7.570;2022-09-30T05:54:34;36.60;;;13.98;;
13269;SDS011;6703;51.994;7.570;2022-09-30T05:57:02;39.73;;;14.17;;
13269;SDS011;6703;51.994;7.570;2022-09-30T05:59:30;35.93;;;13.67;;
13269;SDS011;6703;51.994;7.570;2022-09-30T06:01:58;37.88;;;14.43;;
13269;SDS011;6703;51.994;7.570;2022-09-30T06:04:25;40.17;;;15.77;;
13269;SDS011;6703;51.994;7.570;2022-09-30T06:06:53;41.88;;;15.50;;
13269;SDS011;6703;51.994;7.570;2022-09-30T06:09:23;49.30;;;15.37;;
13269;SDS011;6703;51.994;7.570;2022-09-30T06:11:51;38.22;;;15.75;;
13269;SDS011;6703;51.994;7.570;2022-09-30T06:14:24;47.25;;;15.93;;
13269;SDS011;6703;51.994;7.570;2022-09-30T06:16:53;44.28;;;15.55;;
13269;SDS011;6703;51.994;7.570;2022-09-30T06:19:21;44.60;;;14.95;;
13269;SDS011;6703;51.994;7.570;2022-09-30T06:21:49;49.92;;;15.35;;
13269;SDS011;6703;51.994;7.570;2022-09-30T06:24:17;53.17;;;15.48;;
13269;SDS011;6703;51.994;7.570;2022-09-30T06:26:46;58.63;;;16.48;;
13269;SDS011;6703;51.994;7.570;2022-09-30T06:29:14;63.78;;;16.52;;
13269;SDS011;6703;51.994;7.570;2022-09-30T06:31:41;49.63;;;16.13;;
13269;SDS011;6703;51.994;7.570;2022-09-30T06:34:09;52.92;;;15.75;;
13269;SDS011;6703;51.994;7.570;2022-09-30T06:36:39;48.50;;;16.08;;
13269;SDS011;6703;51.994;7.570;2022-09-30T06:39:07;58.85;;;16.20;;
13269;SDS011;6703;51.994;7.570;2022-09-30T06:41:39;55.15;;;15.88;;
13269;SDS011;6703;51.994;7.570;2022-09-30T06:44:10;57.03;;;16.25;;
13269;SDS011;6703;51.994;7.570;2022-09-30T06:46:38;61.05;;;17.20;;
13269;SDS011;6703;51.994;7.570;2022-09-30T06:49:19;58.53;;;16.25;;
13269;SDS011;6703;51.994;7.570;2022-09-30T06:51:48;62.13;;;17.52;;
13269;SDS011;6703;51.994;7.570;2022-09-30T06:54:16;58.33;;;17.73;;
13269;SDS011;6703;51.994;7.570;2022-09-30T06:56:57;66.47;;;17.63;;
13269;SDS011;6703;51.994;7.570;2022-09-30T06:59:27;61.95;;;17.95;;
13269;SDS011;6703;51.994;7.570;2022-09-30T07:01:54;53.75;;;17.60;;
13269;SDS011;6703;51.994;7.570;2022-09-30T07:04:22;66.90;;;17.80;;
13269;SDS011;6703;51.994;7.570;2022-09-30T07:06:50;59.10;;;17.95;;
13269;SDS011;6703;51.994;7.570;2022-09-30T07:09:20;53.38;;;17.77;;
13269;SDS011;6703;51.994;7.570;2022-09-30T07:11:48;56.55;;;16.55;;
13269;SDS011;6703;51.994;7.570;2022-09-30T07:14:16;47.72;;;16.48;;
13269;SDS011;6703;51.994;7.570;2022-09-30T07:16:45;54.60;;;17.52;;
13269;SDS011;6703;51.994;7.570;2022-09-30T07:19:15;55.30;;;17.80;;
13269;SDS011;6703;51.994;7.570;2022-09-30T07:21:48;60.05;;;18.95;;
13269;SDS011;6703;51.994;7.570;2022-09-30T07:27:45;61.30;;;18.67;;
13269;SDS011;6703;51.994;7.570;2022-09-30T07:30:14;60.20;;;18.02;;
13269;SDS011;6703;51.994;7.570;2022-09-30T07:32:53;54.90;;;18.42;;
13269;SDS011;6703;51.994;7.570;2022-09-30T07:35:21;56.87;;;18.73;;
13269;SDS011;6703;51.994;7.570;2022-09-30T07:37:48;71.05;;;19.63;;
13269;SDS011;6703;51.994;7.570;2022-09-30T07:40:16;52.83;;;18.27;;
13269;SDS011;6703;51.994;7.570;2022-09-30T07:42:44;64.43;;;18.23;;
13269;SDS011;6703;51.994;7.570;2022-09-30T07:45:12;55.05;;;19.08;;
13269;SDS011;6703;51.994;7.570;2022-09-30T07:47:41;50.97;;;17.73;;
13269;SDS011;6703;51.994;7.570;2022-09-30T07:50:11;53.17;;;18.38;;
13269;SDS011;6703;51.994;7.570;2022-09-30T07:52:40;45.37;;;18.40;;
13269;SDS011;6703;51.994;7.570;2022-09-30T07:55:09;50.22;;;18.20;;
13269;SDS011;6703;51.994;7.570;2022-09-30T07:57:36;52.60;;;19.08;;
13269;SDS011;6703;51.994;7.570;2022-09-30T08:00:05;48.83;;;17.38;;
13269;SDS011;6703;51.994;7.570;2022-09-30T08:02:53;43.47;;;17.20;;
13269;SDS011;6703;51.994;7.570;2022-09-30T08:05:22;48.67;;;19.08;;
13269;SDS011;6703;51.994;7.570;2022-09-30T08:07:50;42.73;;;16.53;;
13269;SDS011;6703;51.994;7.570;2022-09-30T08:10:18;43.38;;;16.13;;
13269;SDS011;6703;51.994;7.570;2022-09-30T08:12:47;36.17;;;15.95;;
13269;SDS011;6703;51.994;7.570;2022-09-30T08:15:14;42.40;;;15.97;;
13269;SDS011;6703;51.994;7.570;2022-09-30T08:17:42;34.83;;;15.15;;
13269;SDS011;6703;51.994;7.570;2022-09-30T08:20:11;30.33;;;13.98;;
13269;SDS011;6703;51.994;7.570;2022-09-30T08:22:45;31.17;;;14.23;;
13269;SDS011;6703;51.994;7.570;2022-09-30T08:25:13;30.75;;;14.10;;
13269;SDS011;6703;51.994;7.570;2022-09-30T08:27:41;26.00;;;13.03;;
13269;SDS011;6703;51.994;7.570;2022-09-30T08:30:09;26.05;;;12.40;;
13269;SDS011;6703;51.994;7.570;2022-09-30T08:32:38;25.90;;;11.98;;
13269;SDS011;6703;51.994;7.570;2022-09-30T08:35:06;27.10;;;12.63;;
13269;SDS011;6703;51.994;7.570;2022-09-30T08:37:35;26.88;;;12.32;;
13269;SDS011;6703;51.994;7.570;2022-09-30T08:40:04;28.83;;;12.52;;
13269;SDS011;6703;51.994;7.570;2022-09-30T08:42:36;25.63;;;12.27;;
13269;SDS011;6703;51.994;7.570;2022-09-30T08:45:23;19.98;;;11.23;;
13269;SDS011;6703;51.994;7.570;2022-09-30T08:47:59;28.23;;;11.40;;
13269;SDS011;6703;51.994;7.570;2022-09-30T08:50:33;26.55;;;11.65;;
13269;SDS011;6703;51.994;7.570;2022-09-30T08:53:04;22.13;;;10.68;;
13269;SDS011;6703;51.994;7.570;2022-09-30T08:55:39;19.73;;;10.80;;
13269;SDS011;6703;51.994;7.570;2022-09-30T08:58:13;23.05;;;10.90;;
13269;SDS011;6703;51.994;7.570;2022-09-30T09:00:46;25.05;;;11.18;;
13269;SDS011;6703;51.994;7.570;2022-09-30T09:03:15;23.13;;;10.33;;
13269;SDS011;6703;51.994;7.570;2022-09-30T09:05:46;23.55;;;10.18;;
13269;SDS011;6703;51.994;7.570;2022-09-30T09:08:19;21.53;;;10.77;;
13269;SDS011;6703;51.994;7.570;2022-09-30T09:10:54;22.55;;;9.95;;
13269;SDS011;6703;51.994;7.570;2022-09-30T09:13:34;22.63;;;10.07;;
13269;SDS011;6703;51.994;7.570;2022-09-30T09:16:10;21.65;;;9.80;;
13269;SDS011;6703;51.994;7.570;2022-09-30T09:18:45;20.25;;;10.00;;
13269;SDS011;6703;51.994;7.570;2022-09-30T09:21:20;22.90;;;10.43;;
13269;SDS011;6703;51.994;7.570;2022-09-30T09:23:49;18.92;;;10.57;;
13269;SDS011;6703;51.994;7.570;2022-09-30T09:26:19;20.85;;;11.35;;
13269;SDS011;6703;51.994;7.570;2022-09-30T09:28:50;18.70;;;10.25;;
13269;SDS011;6703;51.994;7.570;2022-09-30T09:31:25;19.92;;;10.63;;
13269;SDS011;6703;51.994;7.570;2022-09-30T09:33:54;18.67;;;9.60;;
13269;SDS011;6703;51.994;7.570;2022-09-30T09:36:25;22.40;;;9.85;;
13269;SDS011;6703;51.994;7.570;2022-09-30T09:39:08;18.92;;;9.40;;
13269;SDS011;6703;51.994;7.570;2022-09-30T09:41:47;18.35;;;8.70;;
13269;SDS011;6703;51.994;7.570;2022-09-30T09:44:21;18.33;;;9.43;;
13269;SDS011;6703;51.994;7.570;2022-09-30T09:46:53;17.88;;;9.20;;
13269;SDS011;6703;51.994;7.570;2022-09-30T09:49:31;18.70;;;8.43;;
13269;SDS011;6703;51.994;7.570;2022-09-30T09:52:13;18.08;;;8.45;;
13269;SDS011;6703;51.994;7.570;2022-09-30T09:54:50;19.13;;;8.43;;
13269;SDS011;6703;51.994;7.570;2022-09-30T09:57:25;17.83;;;8.38;;
13269;SDS011;6703;51.994;7.570;2022-09-30T09:59:58;19.02;;;8.68;;
13269;SDS011;6703;51.994;7.570;2022-09-30T10:05:32;18.25;;;7.25;;
13269;SDS011;6703;51.994;7.570;2022-09-30T10:08:08;15.27;;;7.55;;
13269;SDS011;6703;51.994;7.570;2022-09-30T10:10:41;17.77;;;7.95;;
13269;SDS011;6703;51.994;7.570;2022-09-30T10:13:28;18.85;;;6.80;;
13269;SDS011;6703;51.994;7.570;2022-09-30T10:15:58;13.35;;;7.28;;
13269;SDS011;6703;51.994;7.570;2022-09-30T10:18:26;15.95;;;7.57;;
13269;SDS011;6703;51.994;7.570;2022-09-30T10:20:56;15.13;;;6.72;;
13269;SDS011;6703;51.994;7.570;2022-09-30T10:23:27;16.95;;;6.72;;
13269;SDS011;6703;51.994;7.570;2022-09-30T10:25:57;10.73;;;6.13;;
13269;SDS011;6703;51.994;7.570;2022-09-30T10:28:29;17.38;;;7.13;;
13269;SDS011;6703;51.994;7.570;2022-09-30T10:30:59;17.42;;;6.07;;
13269;SDS011;6703;51.994;7.570;2022-09-30T10:33:31;13.10;;;6.80;;
13269;SDS011;6703;51.994;7.570;2022-09-30T10:36:03;18.50;;;6.95;;
13269;SDS011;6703;51.994;7.570;2022-09-30T10:38:34;14.52;;;6.72;;
13269;SDS011;6703;51.994;7.570;2022-09-30T10:41:03;14.02;;;6.80;;
13269;SDS011;6703;51.994;7.570;2022-09-30T10:43:35;15.43;;;6.97;;
13269;SDS011;6703;51.994;7.570;2022-09-30T10:46:06;17.42;;;6.72;;
13269;SDS011;6703;51.994;7.570;2022-09-30T10:48:53;14.80;;;7.00;;
13269;SDS011;6703;51.994;7.570;2022-09-30T10:51:25;11.50;;;6.60;;
13269;SDS011;6703;51.994;7.570;2022-09-30T10:53:55;13.77;;;5.97;;
13269;SDS011;6703;51.994;7.570;2022-09-30T10:56:33;13.40;;;6.55;;
13269;SDS011;6703;51.994;7.570;2022-09-30T11:02:13;13.68;;;6.80;;
13269;SDS011;6703;51.994;7.570;2022-09-30T11:04:45;13.23;;;6.40;;
13269;SDS011;6703;51.994;7.570;2022-09-30T11:07:22;15.80;;;6.82;;
13269;SDS011;6703;51.994;7.570;2022-09-30T11:09:54;16.38;;;6.38;;
13269;SDS011;6703;51.994;7.570;2022-09-30T11:12:26;14.15;;;6.47;;
13269;SDS011;6703;51.994;7.570;2022-09-30T11:15:00;14.88;;;7.30;;
13269;SDS011;6703;51.994;7.570;2022-09-30T11:17:32;13.93;;;7.10;;
13269;SDS011;6703;51.994;7.570;2022-09-30T11:20:08;14.77;;;7.40;;
13269;SDS011;6703;51.994;7.570;2022-09-30T11:22:43;14.18;;;7.18;;
13269;SDS011;6703;51.994;7.570;2022-09-30T11:25:18;14.52;;;7.65;;
13269;SDS011;6703;51.994;7.570;2022-09-30T11:27:55;17.27;;;8.52;;
13269;SDS011;6703;51.994;7.570;2022-09-30T11:30:32;17.65;;;8.32;;
13269;SDS011;6703;51.994;7.570;2022-09-30T11:33:06;14.83;;;7.70;;
13269;SDS011;6703;51.994;7.570;2022-09-30T11:35:48;13.68;;;7.47;;
13269;SDS011;6703;51.994;7.570;2022-09-30T11:38:24;14.25;;;7.53;;
13269;SDS011;6703;51.994;7.570;2022-09-30T11:41:01;15.68;;;7.28;;
13269;SDS011;6703;51.994;7.570;2022-09-30T11:43:33;11.93;;;6.63;;
13269;SDS011;6703;51.994;7.570;2022-09-30T11:46:20;11.13;;;6.57;;
13269;SDS011;6703;51.994;7.570;2022-09-30T11:49:06;11.85;;;5.80;;
13269;SDS011;6703;51.994;7.570;2022-09-30T11:51:43;9.73;;;5.32;;
13269;SDS011;6703;51.994;7.570;2022-09-30T11:54:24;10.52;;;5.13;;
13269;SDS011;6703;51.994;7.570;2022-09-30T11:56:58;10.75;;;5.20;;
13269;SDS011;6703;51.994;7.570;2022-09-30T11:59:31;10.52;;;5.20;;
13269;SDS011;6703;51.994;7.570;2022-09-30T12:02:09;8.73;;;4.45;;
13269;SDS011;6703;51.994;7.570;2022-09-30T12:04:45;10.32;;;4.45;;
13269;SDS011;6703;51.994;7.570;2022-09-30T12:07:15;8.52;;;4.38;;
13269;SDS011;6703;51.994;7.570;2022-09-30T12:09:45;8.80;;;5.00;;
13269;SDS011;6703;51.994;7.570;2022-09-30T12:12:15;9.82;;;4.82;;
13269;SDS011;6703;51.994;7.570;2022-09-30T12:14:45;10.70;;;4.60;;
13269;SDS011;6703;51.994;7.570;2022-09-30T12:17:18;8.87;;;4.77;;
13269;SDS011;6703;51.994;7.570;2022-09-30T12:19:48;8.20;;;4.22;;
13269;SDS011;6703;51.994;7.570;2022-09-30T12:22:19;9.80;;;4.70;;
13269;SDS011;6703;51.994;7.570;2022-09-30T12:24:51;11.88;;;4.85;;
13269;SDS011;6703;51.994;7.570;2022-09-30T12:27:20;10.50;;;4.45;;
13269;SDS011;6703;51.994;7.570;2022-09-30T12:29:53;8.48;;;4.63;;
13269;SDS011;6703;51.994;7.570;2022-09-30T12:35:55;7.27;;;4.73;;
13269;SDS011;6703;51.994;7.570;2022-09-30T12:38:51;9.63;;;5.07;;
13269;SDS011;6703;51.994;7.570;2022-09-30T12:41:27;9.07;;;4.25;;
13269;SDS011;6703;51.994;7.570;2022-09-30T12:47:07;8.40;;;4.07;;
13269;SDS011;6703;51.994;7.570;2022-09-30T12:49:41;7.88;;;4.55;;
13269;SDS011;6703;51.994;7.570;2022-09-30T12:52:13;9.23;;;4.93;;
13269;SDS011;6703;51.994;7.570;2022-09-30T12:54:46;8.10;;;4.30;;
13269;SDS011;6703;51.994;7.570;2022-09-30T12:57:17;9.17;;;4.60;;
13269;SDS011;6703;51.994;7.570;2022-09-30T12:59:49;9.13;;;4.88;;
13269;SDS011;6703;51.994;7.570;2022-09-30T13:02:25;8.80;;;4.75;;
13269;SDS011;6703;51.994;7.570;2022-09-30T13:08:08;9.60;;;4.65;;
13269;SDS011;6703;51.994;7.570;2022-09-30T13:10:50;10.10;;;4.63;;
13269;SDS011;6703;51.994;7.570;2022-09-30T13:13:23;8.05;;;4.35;;
13269;SDS011;6703;51.994;7.570;2022-09-30T13:15:53;6.53;;;3.88;;
13269;SDS011;6703;51.994;7.570;2022-09-30T13:21:28;8.20;;;3.80;;
13269;SDS011;6703;51.994;7.570;2022-09-30T13:23:59;6.68;;;3.40;;
13269;SDS011;6703;51.994;7.570;2022-09-30T13:29:31;6.97;;;3.22;;
13269;SDS011;6703;51.994;7.570;2022-09-30T13:32:07;6.97;;;3.10;;
13269;SDS011;6703;51.994;7.570;2022-09-30T13:34:52;7.32;;;3.60;;
13269;SDS011;6703;51.994;7.570;2022-09-30T13:37:35;6.47;;;3.40;;
13269;SDS011;6703;51.994;7.570;2022-09-30T13:40:17;4.30;;;2.60;;
13269;SDS011;6703;51.994;7.570;2022-09-30T13:43:09;5.85;;;2.70;;
13269;SDS011;6703;51.994;7.570;2022-09-30T13:45:40;6.55;;;3.00;;
13269;SDS011;6703;51.994;7.570;2022-09-30T13:48:10;5.18;;;2.58;;
13269;SDS011;6703;51.994;7.570;2022-09-30T13:50:42;4.88;;;2.50;;
13269;SDS011;6703;51.994;7.570;2022-09-30T13:53:14;4.78;;;2.45;;
13269;SDS011;6703;51.994;7.570;2022-09-30T13:55:48;6.05;;;2.38;;
13269;SDS011;6703;51.994;7.570;2022-09-30T14:01:26;9.63;;;2.63;;
13269;SDS011;6703;51.994;7.570;2022-09-30T14:04:08;5.53;;;2.37;;
13269;SDS011;6703;51.994;7.570;2022-09-30T14:06:50;4.60;;;2.00;;
13269;SDS011;6703;51.994;7.570;2022-09-30T14:09:35;3.50;;;1.90;;
13269;SDS011;6703;51.994;7.570;2022-09-30T14:12:30;4.78;;;1.80;;
13269;SDS011;6703;51.994;7.570;2022-09-30T14:15:16;6.70;;;1.90;;
13269;SDS011;6703;51.994;7.570;2022-09-30T14:18:04;4.93;;;1.83;;
13269;SDS011;6703;51.994;7.570;2022-09-30T14:20:52;3.95;;;1.92;;
13269;SDS011;6703;51.994;7.570;2022-09-30T14:23:27;5.80;;;1.83;;
13269;SDS011;6703;51.994;7.570;2022-09-30T14:25:56;3.35;;;1.67;;
13269;SDS011;6703;51.994;7.570;2022-09-30T14:28:30;4.93;;;2.05;;
13269;SDS011;6703;51.994;7.570;2022-09-30T14:31:01;4.20;;;1.55;;
13269;SDS011;6703;51.994;7.570;2022-09-30T14:33:35;2.35;;;1.60;;
13269;SDS011;6703;51.994;7.570;2022-09-30T14:36:06;4.45;;;1.80;;
13269;SDS011;6703;51.994;7.570;2022-09-30T14:38:41;2.90;;;1.80;;
13269;SDS011;6703;51.994;7.570;2022-09-30T14:41:13;5.07;;;1.60;;
13269;SDS011;6703;51.994;7.570;2022-09-30T14:43:45;2.50;;;1.85;;
13269;SDS011;6703;51.994;7.570;2022-09-30T14:46:18;3.63;;;2.03;;
13269;SDS011;6703;51.994;7.570;2022-09-30T14:48:52;2.83;;;1.70;;
13269;SDS011;6703;51.994;7.570;2022-09-30T14:51:21;4.65;;;2.00;;
13269;SDS011;6703;51.994;7.570;2022-09-30T14:53:52;3.80;;;1.73;;
13269;SDS011;6703;51.994;7.570;2022-09-30T14:56:22;5.13;;;2.43;;
13269;SDS011;6703;51.994;7.570;2022-09-30T14:58:58;3.88;;;2.10;;
13269;SDS011;6703;51.994;7.570;2022-09-30T15:01:31;6.95;;;2.38;;
13269;SDS011;6703;51.994;7.570;2022-09-30T15:04:03;5.65;;;2.65;;
13269;SDS011;6703;51.994;7.570;2022-09-30T15:06:34;5.53;;;2.55;;
13269;SDS011;6703;51.994;7.570;2022-09-30T15:09:04;4.93;;;2.28;;
13269;SDS011;6703;51.994;7.570;2022-09-30T15:11:34;4.82;;;2.40;;
13269;SDS011;6703;51.994;7.570;2022-09-30T15:14:07;6.70;;;2.80;;
13269;SDS011;6703;51.994;7.570;2022-09-30T15:16:44;6.65;;;3.13;;
13269;SDS011;6703;51.994;7.570;2022-09-30T15:19:14;4.90;;;2.45;;
13269;SDS011;6703;51.994;7.570;2022-09-30T15:21:45;5.28;;;2.65;;
13269;SDS011;6703;51.994;7.570;2022-09-30T15:24:14;4.93;;;2.30;;
13269;SDS011;6703;51.994;7.570;2022-09-30T15:26:43;4.50;;;2.10;;
13269;SDS011;6703;51.994;7.570;2022-09-30T15:29:16;7.30;;;2.67;;
13269;SDS011;6703;51.994;7.570;2022-09-30T15:31:45;7.68;;;2.70;;
13269;SDS011;6703;51.994;7.570;2022-09-30T15:34:14;9.15;;;2.92;;
13269;SDS011;6703;51.994;7.570;2022-09-30T15:36:54;3.83;;;2.20;;
13269;SDS011;6703;51.994;7.570;2022-09-30T15:39:27;4.50;;;2.13;;
13269;SDS011;6703;51.994;7.570;2022-09-30T15:42:26;9.23;;;2.67;;
13269;SDS011;6703;51.994;7.570;2022-09-30T15:44:57;6.10;;;2.60;;